To NAV CANADA Home Page Login to a new session Search on AWWS site Feedback and Comments Disclaimer Vers la page française équivalente Tips FAQ What's new on the site To the Forecasts and Observations / NOTAM section To "File a Flight Plan" website Publications and other links Update of the User's profile FIC Telephone Numbers My Weather Data Folder Route Weather Data Regional Weather Data Local Weather Data To the Forecasts and Observations / NOTAM section
Request Generated 05/25/2017 at 01:12:50 UTC . Weather information available at that time is displayed.

METAR/TAF

OTTAWA/GATINEAU/QC    

METAR CYND 250100Z 06006KT 15SM SCT110 SCT220 19/11 A2975 RMK AC3CI1
LAST STFD OBS/NEXT 251100 UTC SLP078 DENSITY ALT 800FT=
METAR CYND 250000Z 09005KT 15SM BKN100 BKN220 20/12 A2974 RMK AC5CI2
SLP074 DENSITY ALT 1000FT=
METAR CYND 242300Z 08008KT 15SM FEW040 FEW100 BKN220 23/12 A2973 RMK
SC1AC2CI4 SC TR SLP068 DENSITY ALT 1300FT=

*** REMARK        : Forecast period has ended; this was the last TAF issued
*** REMARQUE : La période de prévision est échue; ceci était le dernier TAF qui a été émis
TAF CYND 241738Z 2418/2501 09007KT P6SM SCT050 BKN140 TEMPO 2418/2422
P6SM -SHRA BKN050 BKN140
RMK NXT FCST WILL BE ISSUED AT 251245Z=
Your time UTC time
Weather data provided by Environment Canada and NAV CANADA